createdAt,value
2023-01-23T00:12:08.825Z,1918.39706
2023-01-23T00:27:10.780Z,1777.18882
2023-01-23T00:42:12.717Z,1743.65697
2023-01-23T00:57:14.644Z,1871.50888
2023-01-23T01:12:16.582Z,2140.57558
2023-01-23T01:27:18.501Z,2108.57643
2023-01-23T01:42:20.526Z,1910.19294
2023-01-23T01:57:22.458Z,1766.64519
2023-01-23T02:12:24.519Z,1678.14702
2023-01-23T02:27:26.426Z,1793.84253
2023-01-23T02:42:28.346Z,1758.53068
2023-01-23T02:57:30.297Z,1709.18417
2023-01-23T03:12:32.487Z,1848.27636
2023-01-23T03:27:34.423Z,1809.58861
2023-01-23T03:42:36.307Z,1868.89868
2023-01-23T03:57:38.285Z,1904.7624
2023-01-23T04:12:40.243Z,1805.93042
2023-01-23T04:27:42.145Z,1917.02482
2023-01-23T04:42:44.083Z,1786.66716
2023-01-23T04:57:46.036Z,1885.99628
2023-01-23T05:12:47.948Z,1600.95629
2023-01-23T05:27:49.955Z,904.79456
2023-01-23T05:42:51.889Z,1084.1429
2023-01-23T05:57:53.782Z,1147.26078
2023-01-23T06:12:55.725Z,1116.66717
2023-01-23T06:27:57.665Z,1440.86073
2023-01-23T06:42:59.561Z,1679.19849
2023-01-23T06:58:01.446Z,1667.70429
2023-01-23T07:13:03.475Z,1703.75129
2023-01-23T07:28:05.472Z,1671.86575
2023-01-23T07:43:07.422Z,1673.95427
2023-01-23T07:58:09.326Z,1908.83241
2023-01-23T08:13:11.226Z,1935.01855
2023-01-23T08:28:13.144Z,2098.66926
2023-01-23T08:43:15.134Z,2061.53896
2023-01-23T08:58:17.054Z,2170.04099
2023-01-23T09:13:19.048Z,2067.90174
2023-01-23T09:28:20.944Z,2163.03521
2023-01-23T09:43:22.922Z,2034.92837
2023-01-23T09:58:24.899Z,2088.85475
2023-01-23T10:13:26.847Z,1957.63381
2023-01-23T10:28:28.832Z,2004.48816
2023-01-23T10:43:30.760Z,1169.28497
2023-01-23T10:58:32.714Z,1333.33384
2023-01-23T11:13:34.632Z,1640.14737
2023-01-23T11:28:36.592Z,1748.20663
2023-01-23T11:43:38.515Z,1785.47684
2023-01-23T11:58:49.429Z,1857.24235
2023-01-23T12:13:52.142Z,1917.02482
2023-01-23T12:28:54.208Z,1950.50996
2023-01-23T12:43:56.140Z,1976.40168
2023-01-23T12:58:58.103Z,1967.69507
2023-01-23T13:14:00.936Z,1928.05805
2023-01-23T13:29:04.101Z,1936.41668
2023-01-23T13:44:06.121Z,1928.05805
2023-01-23T14:31:25.926Z,1787.85907
2023-01-23T14:46:28.086Z,1632.1564
2023-01-23T15:01:30.089Z,1616.4058
2023-01-23T15:16:32.117Z,1500.56043
2023-01-23T15:31:34.272Z,1209.38679
2023-01-23T15:46:36.275Z,812.6142
2023-01-23T16:01:38.268Z,825.63204
2023-01-23T16:16:40.467Z,1077.17092
2023-01-23T16:31:42.635Z,1128.89688
2023-01-23T16:46:44.725Z,1344.03261
2023-01-23T17:01:46.732Z,1375.77053
2023-01-23T17:16:48.794Z,1387.16407
2023-01-23T17:31:50.995Z,984.57067
2023-01-23T17:46:53.103Z,1229.3583
2023-01-23T18:01:55.104Z,1354.90445
2023-01-23T18:16:57.036Z,1604.79091
2023-01-23T18:31:59.087Z,1560.86246
2023-01-23T18:47:01.129Z,1631.163
2023-01-23T19:02:03.180Z,1616.4058
2023-01-23T19:17:05.154Z,1729.03275
2023-01-23T19:32:07.354Z,1709.18417
2023-01-23T19:47:09.312Z,1801.07576
2023-01-23T20:02:11.354Z,1813.26166
2023-01-23T20:17:13.490Z,1922.52561
2023-01-23T20:32:15.584Z,2048.93016
2023-01-23T20:47:17.526Z,2138.86722
2023-01-23T21:02:19.435Z,2152.61095
2023-01-23T21:17:21.396Z,2072.69965
2023-01-23T21:32:23.310Z,2115.23334
2023-01-23T21:47:25.252Z,2142.28667
2023-01-23T22:02:27.288Z,2163.03521
2023-01-23T22:17:29.274Z,2121.93241
2023-01-23T22:32:31.168Z,2108.57643
2023-01-23T22:47:33.097Z,2137.16159
2023-01-23T23:02:35.054Z,2157.81049
2023-01-23T23:17:37.054Z,2189.54299
2023-01-23T23:32:39.005Z,2216.70853
2023-01-23T23:47:40.903Z,2231.47428
